Time;durP1;ratioP1;P1;durP2;ratioP2;P2;SDS_P1;SDS_P2;PMS_P1;PMS_P2;Temp;Humidity;BMP_temperature;BMP_pressure;BME280_temperature;BME280_humidity;BME280_pressure;Samples;Min_cycle;Max_cycle;Signal;HPM_P1;HPM_P2
2022/08/31 00:05:32;;;;;;;2.33;1.00;;;21.10;96.10;;;;;;5095804;28;20445;-75
2022/08/31 00:07:58;;;;;;;1.13;1.00;;;21.10;95.00;;;;;;5095654;28;20826;-75
2022/08/31 00:10:27;;;;;;;1.40;0.97;;;21.10;95.20;;;;;;5095522;28;20479;-75
2022/08/31 00:12:55;;;;;;;0.80;0.80;;;21.10;95.70;;;;;;5095492;28;20518;-75
2022/08/31 00:15:24;;;;;;;1.90;0.77;;;21.10;96.10;;;;;;5095538;28;20447;-75
2022/08/31 00:17:54;;;;;;;0.93;0.90;;;21.10;96.00;;;;;;5095467;28;20454;-75
2022/08/31 00:20:23;;;;;;;0.60;0.60;;;21.10;96.10;;;;;;5095490;28;20431;-75
2022/08/31 00:22:50;;;;;;;3.13;0.87;;;21.10;96.20;;;;;;5095523;28;20475;-75
2022/08/31 00:25:17;;;;;;;1.47;0.93;;;21.00;95.70;;;;;;5094957;28;20482;-75
2022/08/31 00:27:43;;;;;;;1.27;1.10;;;21.10;95.70;;;;;;5095252;28;20450;-75
2022/08/31 00:30:12;;;;;;;0.80;0.80;;;21.00;96.10;;;;;;5095130;28;20475;-75
2022/08/31 00:32:40;;;;;;;1.53;0.80;;;21.00;97.50;;;;;;5095123;28;20467;-75
2022/08/31 00:35:07;;;;;;;0.67;0.67;;;20.90;98.40;;;;;;5095372;28;20447;-75
2022/08/31 00:37:34;;;;;;;1.27;0.87;;;20.80;99.10;;;;;;5095071;28;20444;-75
2022/08/31 00:40:01;;;;;;;1.27;0.90;;;20.80;99.90;;;;;;5094985;28;20447;-75
2022/08/31 00:42:28;;;;;;;1.10;0.97;;;20.60;99.90;;;;;;5094879;28;20464;-76
2022/08/31 00:44:54;;;;;;;1.20;1.00;;;20.40;99.90;;;;;;5094940;28;20436;-76
2022/08/31 00:47:21;;;;;;;1.60;1.50;;;20.00;99.90;;;;;;5094858;28;20471;-76
2022/08/31 00:49:50;;;;;;;2.13;1.37;;;19.70;99.90;;;;;;5094738;28;20444;-74
2022/08/31 00:52:21;;;;;;;1.20;1.10;;;19.30;99.90;;;;;;5094709;28;20831;-75
2022/08/31 00:54:53;;;;;;;1.27;1.17;;;18.90;99.90;;;;;;5094756;28;20492;-75
2022/08/31 00:57:21;;;;;;;1.20;0.80;;;18.50;99.90;;;;;;5094721;28;20431;-75
2022/08/31 00:59:49;;;;;;;2.03;1.47;;;18.10;99.90;;;;;;5094066;28;20447;-75
2022/08/31 01:02:17;;;;;;;4.90;1.57;;;17.80;99.90;;;;;;5094505;28;20468;-75
2022/08/31 01:04:44;;;;;;;1.90;1.30;;;17.60;99.90;;;;;;5094554;28;20447;-76
2022/08/31 01:07:13;;;;;;;1.53;1.17;;;17.50;99.90;;;;;;5094477;28;20448;-76
2022/08/31 01:09:42;;;;;;;1.13;0.87;;;17.40;99.90;;;;;;5094447;28;20444;-75
2022/08/31 01:12:10;;;;;;;0.97;0.87;;;17.30;99.90;;;;;;5094238;28;20495;-76
2022/08/31 01:14:38;;;;;;;1.17;1.07;;;17.20;99.90;;;;;;5094056;28;20825;-75
2022/08/31 01:17:06;;;;;;;3.13;0.80;;;17.20;99.90;;;;;;5093998;28;20931;-75
2022/08/31 01:19:38;;;;;;;6.63;1.73;;;17.20;99.90;;;;;;5093970;28;20921;-75
2022/08/31 01:22:13;;;;;;;1.17;1.07;;;17.20;99.90;;;;;;5094196;28;20455;-75
2022/08/31 01:24:46;;;;;;;0.80;0.60;;;17.10;99.90;;;;;;5094313;28;20794;-76
2022/08/31 01:27:14;;;;;;;1.53;1.23;;;17.10;99.90;;;;;;5095045;28;20443;-75
2022/08/31 01:29:41;;;;;;;2.10;1.10;;;17.10;99.90;;;;;;5094133;28;20444;-75
2022/08/31 01:32:08;;;;;;;1.83;0.70;;;17.00;99.90;;;;;;5093958;28;20483;-75
2022/08/31 01:34:35;;;;;;;2.23;1.30;;;16.90;99.90;;;;;;5094078;28;20443;-76
2022/08/31 01:37:02;;;;;;;1.00;0.80;;;17.00;99.90;;;;;;5093673;28;20947;-76
2022/08/31 01:39:29;;;;;;;1.83;0.80;;;17.00;99.90;;;;;;5094071;28;20447;-76
2022/08/31 01:41:57;;;;;;;2.63;0.93;;;17.00;99.90;;;;;;5093874;28;20466;-76
2022/08/31 01:44:26;;;;;;;5.37;1.10;;;16.90;99.90;;;;;;5093903;28;20466;-75
2022/08/31 01:46:53;;;;;;;0.80;0.60;;;16.90;99.90;;;;;;5093844;28;20448;-75
2022/08/31 01:49:22;;;;;;;1.63;0.90;;;16.90;99.90;;;;;;5093800;28;20455;-74
2022/08/31 01:51:49;;;;;;;1.53;0.93;;;16.90;99.90;;;;;;5093312;28;20480;-75
2022/08/31 01:54:16;;;;;;;3.63;1.30;;;16.90;99.90;;;;;;5093827;28;20448;-75
2022/08/31 01:56:46;;;;;;;1.53;1.43;;;17.00;99.90;;;;;;5094023;28;20436;-75
2022/08/31 01:59:16;;;;;;;1.37;0.70;;;17.00;99.90;;;;;;5094742;28;20438;-75
2022/08/31 02:01:46;;;;;;;1.63;0.93;;;17.00;99.90;;;;;;5093599;28;20460;-75
2022/08/31 02:04:14;;;;;;;1.47;1.00;;;17.00;99.90;;;;;;5093683;28;20428;-75
2022/08/31 02:06:43;;;;;;;1.60;0.97;;;16.90;99.90;;;;;;5093270;28;20451;-75
2022/08/31 02:09:10;;;;;;;1.30;0.90;;;17.00;99.90;;;;;;5093523;28;20440;-75
2022/08/31 02:11:37;;;;;;;3.07;0.63;;;16.90;99.90;;;;;;5092688;28;20483;-75
2022/08/31 02:14:05;;;;;;;1.13;0.80;;;16.90;99.90;;;;;;5093358;28;20452;-75
2022/08/31 02:16:33;;;;;;;1.27;1.17;;;16.80;99.90;;;;;;5093473;28;20447;-75
2022/08/31 02:19:00;;;;;;;2.93;1.03;;;16.80;99.90;;;;;;5093287;28;20443;-75
2022/08/31 02:21:27;;;;;;;1.30;0.70;;;16.80;99.90;;;;;;5093383;28;20447;-75
2022/08/31 02:23:54;;;;;;;1.57;1.20;;;16.90;99.90;;;;;;5093372;28;20470;-75
2022/08/31 02:26:21;;;;;;;1.87;1.10;;;16.90;99.90;;;;;;5092896;28;20986;-75
2022/08/31 02:28:48;;;;;;;1.37;1.20;;;16.90;99.90;;;;;;5093359;28;20447;-75
2022/08/31 02:31:15;;;;;;;0.60;0.60;;;16.80;99.90;;;;;;5093179;28;20483;-75
2022/08/31 02:33:43;;;;;;;0.90;0.60;;;16.90;99.90;;;;;;5093325;28;20451;-75
2022/08/31 02:36:09;;;;;;;1.30;0.70;;;16.80;99.90;;;;;;5093293;28;20862;-75
2022/08/31 02:38:37;;;;;;;2.07;1.10;;;16.80;99.90;;;;;;5093060;28;20443;-75
2022/08/31 02:41:05;;;;;;;1.97;0.77;;;16.80;99.90;;;;;;5093255;28;20451;-75
2022/08/31 02:43:32;;;;;;;2.60;1.53;;;16.80;99.90;;;;;;5093151;28;20463;-75
2022/08/31 02:45:59;;;;;;;1.20;1.13;;;16.80;99.90;;;;;;5093195;28;20448;-75
2022/08/31 02:48:26;;;;;;;0.83;0.80;;;16.80;99.90;;;;;;5093192;28;20450;-75
2022/08/31 02:50:54;;;;;;;1.03;0.60;;;16.70;99.90;;;;;;5093082;28;20482;-75
2022/08/31 02:53:22;;;;;;;2.00;0.90;;;16.80;99.90;;;;;;5093067;28;20470;-75
2022/08/31 02:55:50;;;;;;;1.20;0.87;;;16.80;99.90;;;;;;5093089;28;20470;-75
2022/08/31 02:58:17;;;;;;;2.30;1.03;;;16.80;99.90;;;;;;5093095;28;20587;-75
2022/08/31 03:00:46;;;;;;;4.70;1.07;;;16.80;99.90;;;;;;5093061;28;20436;-75
2022/08/31 03:03:14;;;;;;;2.80;0.87;;;16.80;99.90;;;;;;5093241;28;20468;-75
2022/08/31 03:05:41;;;;;;;0.80;0.80;;;16.80;99.90;;;;;;5092991;28;20448;-75
2022/08/31 03:08:09;;;;;;;2.27;1.00;;;16.80;99.90;;;;;;5092999;28;20451;-75
2022/08/31 03:10:37;;;;;;;0.93;0.87;;;16.90;99.90;;;;;;5092921;28;20451;-75
2022/08/31 03:13:04;;;;;;;0.73;0.70;;;16.80;99.90;;;;;;5092888;28;20490;-75
2022/08/31 03:15:31;;;;;;;1.80;0.80;;;16.90;99.90;;;;;;5092914;28;20444;-75
2022/08/31 03:17:58;;;;;;;2.60;1.27;;;16.90;99.90;;;;;;5092927;28;20456;-75
2022/08/31 03:20:26;;;;;;;2.10;0.80;;;16.90;99.90;;;;;;5093141;28;20452;-75
2022/08/31 03:22:53;;;;;;;1.67;1.17;;;16.90;99.90;;;;;;5094693;28;20466;-75
2022/08/31 03:25:22;;;;;;;1.17;0.63;;;16.80;99.90;;;;;;5096258;28;20487;-75
2022/08/31 03:27:49;;;;;;;1.63;1.03;;;16.80;99.90;;;;;;5096240;28;20441;-75
2022/08/31 03:30:19;;;;;;;1.90;0.90;;;16.80;99.90;;;;;;5096420;28;20514;-75
2022/08/31 03:32:47;;;;;;;1.87;0.87;;;16.70;99.90;;;;;;5096219;28;20484;-75
2022/08/31 03:35:14;;;;;;;2.13;0.80;;;16.70;99.90;;;;;;5096013;28;20452;-75
2022/08/31 03:37:41;;;;;;;1.20;1.10;;;16.80;99.90;;;;;;5096225;28;20455;-75
2022/08/31 03:40:09;;;;;;;1.90;0.93;;;16.80;99.90;;;;;;5095914;28;20939;-75
2022/08/31 03:42:37;;;;;;;1.40;0.67;;;16.80;99.90;;;;;;5096112;28;20467;-75
2022/08/31 03:45:06;;;;;;;1.13;1.03;;;16.80;99.90;;;;;;5096111;28;20444;-75
2022/08/31 03:47:33;;;;;;;2.60;1.70;;;16.80;99.90;;;;;;5096053;28;20454;-75
2022/08/31 03:50:02;;;;;;;1.83;1.20;;;16.80;99.90;;;;;;5096053;28;20448;-75
2022/08/31 03:52:29;;;;;;;2.63;0.83;;;16.80;99.90;;;;;;5095845;28;20541;-75
2022/08/31 03:54:56;;;;;;;3.17;0.80;;;16.80;99.90;;;;;;5095914;28;20448;-75
2022/08/31 03:57:23;;;;;;;2.50;1.00;;;16.70;99.90;;;;;;5095849;28;20448;-75
2022/08/31 03:59:53;;;;;;;2.30;1.20;;;16.70;99.90;;;;;;5095838;28;20447;-75
2022/08/31 04:02:21;;;;;;;2.57;1.23;;;16.70;99.90;;;;;;5095719;28;20467;-75
2022/08/31 04:04:50;;;;;;;3.77;1.10;;;16.70;99.90;;;;;;5095749;28;20454;-75
2022/08/31 04:07:17;;;;;;;1.53;0.80;;;16.60;99.90;;;;;;5095393;28;20959;-75
2022/08/31 04:09:44;;;;;;;1.70;0.80;;;16.60;99.90;;;;;;5095620;28;20476;-75
2022/08/31 04:12:11;;;;;;;2.80;0.80;;;16.60;99.90;;;;;;5095453;28;20487;-75
2022/08/31 04:14:38;;;;;;;1.20;1.10;;;16.50;99.90;;;;;;5095810;28;20444;-75
2022/08/31 04:17:09;;;;;;;1.17;0.70;;;16.40;99.90;;;;;;5095535;28;20444;-75
2022/08/31 04:19:35;;;;;;;1.40;1.30;;;16.30;99.90;;;;;;5095508;28;20435;-75
2022/08/31 04:22:02;;;;;;;0.80;0.77;;;16.30;99.90;;;;;;5095348;28;20460;-75
2022/08/31 04:24:29;;;;;;;1.60;0.80;;;16.40;99.90;;;;;;5095383;28;20440;-75
2022/08/31 04:26:56;;;;;;;1.70;1.50;;;16.40;99.90;;;;;;5095163;28;20645;-75
2022/08/31 04:29:23;;;;;;;1.57;1.00;;;16.40;99.90;;;;;;5095259;28;20455;-75
2022/08/31 04:31:50;;;;;;;2.10;0.90;;;16.40;99.90;;;;;;5095073;28;20519;-75
2022/08/31 04:34:18;;;;;;;7.70;0.93;;;16.50;99.90;;;;;;5093923;28;20948;-75
2022/08/31 04:36:45;;;;;;;1.03;1.00;;;16.50;99.90;;;;;;5095112;28;20448;-75
2022/08/31 04:39:12;;;;;;;0.57;0.57;;;16.50;99.90;;;;;;5095037;28;20451;-75
2022/08/31 04:41:40;;;;;;;1.67;1.00;;;16.50;99.90;;;;;;5094918;28;20471;-75
2022/08/31 04:44:10;;;;;;;1.17;0.90;;;16.40;99.90;;;;;;5094665;28;20943;-75
2022/08/31 04:46:38;;;;;;;0.70;0.70;;;16.40;99.90;;;;;;5094899;28;20476;-75
2022/08/31 04:49:08;;;;;;;2.13;0.90;;;16.30;99.90;;;;;;5094563;28;20439;-75
2022/08/31 04:51:38;;;;;;;1.23;0.80;;;16.30;99.90;;;;;;5094308;28;21007;-75
2022/08/31 04:54:07;;;;;;;2.60;0.80;;;16.30;99.90;;;;;;5095033;28;20459;-75
2022/08/31 04:56:37;;;;;;;0.83;0.60;;;16.30;99.90;;;;;;5094724;28;20456;-75
2022/08/31 04:59:07;;;;;;;0.60;0.60;;;16.30;99.90;;;;;;5094665;28;20927;-75
2022/08/31 05:01:37;;;;;;;1.53;0.93;;;16.20;99.90;;;;;;5094230;28;20471;-75
2022/08/31 05:04:05;;;;;;;1.30;1.07;;;16.30;99.90;;;;;;5095460;28;20436;-75
2022/08/31 05:06:34;;;;;;;0.97;0.90;;;16.30;99.90;;;;;;5094198;28;20865;-75
2022/08/31 05:09:06;;;;;;;0.60;0.60;;;16.30;99.90;;;;;;5094487;28;20444;-75
2022/08/31 05:11:34;;;;;;;1.80;1.53;;;16.30;99.90;;;;;;5094387;28;20483;-75
2022/08/31 05:14:02;;;;;;;1.00;0.90;;;16.20;99.90;;;;;;5094429;28;20451;-75
2022/08/31 05:16:30;;;;;;;0.70;0.63;;;16.20;99.90;;;;;;5094100;28;20965;-75
2022/08/31 05:18:58;;;;;;;1.00;0.77;;;16.10;99.90;;;;;;5094053;28;20443;-75
2022/08/31 05:21:27;;;;;;;5.93;0.77;;;16.10;99.90;;;;;;5094213;28;20494;-75
2022/08/31 05:23:56;;;;;;;0.53;0.53;;;16.10;99.90;;;;;;5094174;28;20489;-75
2022/08/31 05:26:28;;;;;;;0.53;0.53;;;16.10;99.90;;;;;;5093991;28;20544;-75
2022/08/31 05:28:56;;;;;;;0.80;0.67;;;16.10;99.90;;;;;;5093866;28;20892;-75
2022/08/31 05:31:23;;;;;;;0.83;0.83;;;16.10;99.90;;;;;;5093955;28;20448;-75
2022/08/31 05:33:50;;;;;;;1.13;0.80;;;16.10;99.90;;;;;;5094100;28;20448;-75
2022/08/31 05:36:17;;;;;;;0.93;0.80;;;16.20;99.90;;;;;;5093718;28;20506;-75
2022/08/31 05:38:44;;;;;;;1.23;1.13;;;16.20;99.90;;;;;;5093647;28;20944;-75
2022/08/31 05:41:11;;;;;;;0.80;0.53;;;16.20;99.90;;;;;;5093879;28;20452;-75
2022/08/31 05:43:39;;;;;;;1.30;0.63;;;16.10;99.90;;;;;;5093922;28;20448;-76
2022/08/31 05:46:07;;;;;;;0.73;0.73;;;16.10;99.90;;;;;;5093670;28;20451;-76
2022/08/31 05:48:36;;;;;;;0.93;0.70;;;16.20;99.90;;;;;;5093515;28;20444;-76
2022/08/31 05:51:04;;;;;;;0.57;0.53;;;16.20;99.90;;;;;;5093761;28;20535;-76
2022/08/31 05:53:30;;;;;;;0.87;0.77;;;16.20;99.90;;;;;;5093858;28;20860;-75
2022/08/31 05:56:01;;;;;;;3.77;0.90;;;16.20;99.90;;;;;;5093376;28;20958;-75
2022/08/31 05:58:29;;;;;;;1.10;0.77;;;16.20;99.90;;;;;;5093724;28;20451;-75
2022/08/31 06:00:57;;;;;;;1.00;0.57;;;16.20;99.90;;;;;;5093932;28;20436;-75
2022/08/31 06:03:24;;;;;;;0.83;0.83;;;16.30;99.90;;;;;;5093556;28;20460;-75
2022/08/31 06:05:51;;;;;;;0.77;0.73;;;16.30;99.90;;;;;;5093648;28;20435;-75
2022/08/31 06:08:18;;;;;;;0.60;0.60;;;16.30;99.90;;;;;;5093512;28;20965;-75
2022/08/31 06:10:46;;;;;;;2.30;1.00;;;16.30;99.90;;;;;;5093570;28;20444;-75
2022/08/31 06:13:13;;;;;;;2.53;0.70;;;16.30;99.90;;;;;;5093076;28;20825;-75
2022/08/31 06:15:40;;;;;;;2.33;1.13;;;16.30;99.90;;;;;;5093395;28;20498;-76
2022/08/31 06:18:09;;;;;;;0.77;0.57;;;16.30;99.90;;;;;;5093711;28;20455;-76
2022/08/31 06:20:36;;;;;;;2.00;1.40;;;16.20;99.90;;;;;;5093182;28;20810;-75
2022/08/31 06:23:04;;;;;;;1.50;1.33;;;16.30;99.90;;;;;;5093385;28;20464;-75
2022/08/31 06:25:31;;;;;;;1.23;0.90;;;16.30;99.90;;;;;;5093099;28;20475;-75
2022/08/31 06:27:59;;;;;;;1.37;0.57;;;16.30;99.90;;;;;;5093379;28;20447;-75
2022/08/31 06:30:26;;;;;;;0.97;0.97;;;16.20;99.90;;;;;;5093054;28;20451;-76
2022/08/31 06:32:53;;;;;;;0.60;0.60;;;16.20;99.90;;;;;;5093199;28;20511;-75
2022/08/31 06:35:21;;;;;;;1.57;0.80;;;16.20;99.90;;;;;;5093367;28;20448;-75
2022/08/31 06:37:48;;;;;;;0.97;0.60;;;16.20;99.90;;;;;;5093305;28;20450;-75
2022/08/31 06:40:16;;;;;;;0.60;0.60;;;16.20;99.90;;;;;;5093290;28;20474;-75
2022/08/31 06:42:43;;;;;;;1.23;0.70;;;16.20;99.90;;;;;;5093163;28;20468;-75
2022/08/31 06:45:11;;;;;;;0.90;0.70;;;16.20;99.90;;;;;;5093277;28;20443;-76
2022/08/31 06:47:37;;;;;;;1.27;0.60;;;16.20;99.90;;;;;;5093206;28;20451;-75
2022/08/31 06:50:05;;;;;;;1.83;1.13;;;16.20;99.90;;;;;;5093181;28;20448;-75
2022/08/31 06:52:33;;;;;;;2.50;0.80;;;16.20;99.90;;;;;;5092986;28;20479;-75
2022/08/31 06:55:00;;;;;;;0.50;0.50;;;16.20;99.90;;;;;;5093138;28;20451;-75
2022/08/31 06:57:27;;;;;;;2.50;1.10;;;16.20;99.90;;;;;;5094443;28;20448;-75
2022/08/31 06:59:54;;;;;;;1.70;0.70;;;16.20;99.90;;;;;;5096957;28;20447;-76
2022/08/31 07:02:20;;;;;;;1.13;1.03;;;16.20;99.90;;;;;;5097384;28;20818;-75
2022/08/31 07:04:47;;;;;;;1.00;0.90;;;16.10;99.90;;;;;;5097005;28;20456;-75
2022/08/31 07:07:14;;;;;;;0.80;0.70;;;16.10;99.90;;;;;;5096875;28;20448;-75
2022/08/31 07:09:43;;;;;;;0.80;0.80;;;16.20;99.90;;;;;;5096843;28;20451;-75
2022/08/31 07:12:10;;;;;;;1.83;0.67;;;16.20;99.90;;;;;;5096624;28;20486;-76
2022/08/31 07:14:37;;;;;;;0.60;0.60;;;16.20;99.90;;;;;;5096706;28;20458;-75
2022/08/31 07:17:04;;;;;;;0.60;0.60;;;16.30;99.90;;;;;;5096670;28;20444;-75
2022/08/31 07:19:31;;;;;;;1.23;0.87;;;16.30;99.90;;;;;;5096281;28;20943;-75
2022/08/31 07:22:00;;;;;;;1.93;0.80;;;16.30;99.90;;;;;;5096495;28;20520;-75
2022/08/31 07:24:29;;;;;;;0.57;0.57;;;16.30;99.90;;;;;;5096498;28;20463;-75
2022/08/31 07:26:59;;;;;;;3.23;0.70;;;16.30;99.90;;;;;;5096051;28;20528;-75
2022/08/31 07:29:29;;;;;;;1.17;1.07;;;16.40;99.90;;;;;;5096119;28;20440;-75
2022/08/31 07:31:56;;;;;;;0.77;0.77;;;16.40;99.90;;;;;;5095888;28;20466;-75
2022/08/31 07:34:25;;;;;;;1.13;0.90;;;16.40;99.90;;;;;;5096359;28;20444;-75
2022/08/31 07:42:27;;;;;;;2.30;1.23;;;16.40;99.90;;;;;;5096190;28;20946;-76
2022/08/31 07:44:55;;;;;;;2.23;0.80;;;16.40;99.90;;;;;;5096155;28;20475;-76
2022/08/31 07:47:24;;;;;;;1.87;0.60;;;16.50;99.90;;;;;;5096016;28;20448;-76
2022/08/31 07:49:53;;;;;;;3.17;1.40;;;16.40;99.90;;;;;;5096024;28;20451;-75
2022/08/31 07:52:22;;;;;;;8.50;0.87;;;16.40;99.90;;;;;;5095858;28;20490;-76
2022/08/31 07:54:50;;;;;;;0.90;0.90;;;16.50;99.90;;;;;;5095930;28;20501;-75
2022/08/31 07:57:17;;;;;;;1.00;0.83;;;16.60;99.90;;;;;;5096136;28;20448;-75
2022/08/31 07:59:46;;;;;;;2.93;1.03;;;16.60;99.90;;;;;;5095821;28;20476;-76
2022/08/31 08:02:15;;;;;;;2.20;0.80;;;16.60;99.90;;;;;;5095384;28;20495;-76
2022/08/31 08:04:43;;;;;;;2.63;0.93;;;16.60;99.90;;;;;;5095749;28;20451;-75
2022/08/31 08:07:11;;;;;;;5.73;1.20;;;16.70;99.90;;;;;;5095706;28;20452;-76
2022/08/31 08:09:38;;;;;;;2.10;0.60;;;16.70;99.90;;;;;;5095629;28;20454;-75
2022/08/31 08:12:06;;;;;;;2.97;0.87;;;16.60;99.90;;;;;;5095448;28;20509;-76
2022/08/31 08:14:34;;;;;;;0.70;0.60;;;16.70;99.90;;;;;;5095602;28;20823;-75
2022/08/31 08:17:03;;;;;;;1.17;1.07;;;16.70;99.90;;;;;;5095521;28;20448;-75
2022/08/31 08:19:32;;;;;;;1.00;0.87;;;16.60;99.90;;;;;;5095484;28;20833;-75
2022/08/31 08:22:01;;;;;;;1.50;0.83;;;16.70;99.90;;;;;;5095345;28;20474;-75
2022/08/31 08:24:30;;;;;;;2.50;0.63;;;16.70;99.90;;;;;;5095389;28;20444;-75
2022/08/31 08:26:57;;;;;;;1.17;1.10;;;16.80;99.90;;;;;;5094822;28;20852;-75
2022/08/31 08:29:24;;;;;;;2.77;1.27;;;16.80;99.90;;;;;;5094948;28;20962;-75
2022/08/31 08:31:52;;;;;;;0.83;0.80;;;16.90;99.90;;;;;;5094830;28;20464;-75
2022/08/31 08:34:21;;;;;;;2.47;1.17;;;16.90;99.90;;;;;;5095107;28;20849;-75
2022/08/31 08:36:49;;;;;;;2.37;1.07;;;17.00;99.90;;;;;;5095119;28;20450;-75
2022/08/31 08:39:16;;;;;;;2.40;0.87;;;17.00;99.90;;;;;;5095059;28;20454;-75
2022/08/31 08:41:46;;;;;;;1.30;0.90;;;17.10;99.90;;;;;;5094641;28;20842;-75
2022/08/31 08:44:15;;;;;;;1.00;1.00;;;17.10;99.90;;;;;;5094988;28;20440;-76
2022/08/31 08:46:46;;;;;;;1.00;0.90;;;17.10;99.90;;;;;;5095029;28;20931;-75
2022/08/31 08:49:22;;;;;;;2.23;1.50;;;17.10;99.90;;;;;;5094922;28;20440;-75
2022/08/31 08:51:53;;;;;;;2.10;1.97;;;17.20;99.90;;;;;;5094524;28;20982;-75
2022/08/31 08:54:28;;;;;;;0.83;0.63;;;17.30;99.90;;;;;;5094438;28;20479;-76
2022/08/31 08:56:58;;;;;;;2.00;1.00;;;17.30;99.90;;;;;;5094520;28;20439;-76
2022/08/31 08:59:27;;;;;;;4.30;1.47;;;17.30;99.90;;;;;;5094678;28;20448;-76
2022/08/31 09:02:05;;;;;;;2.13;1.00;;;17.40;99.90;;;;;;5094578;28;20472;-76
2022/08/31 09:04:52;;;;;;;1.90;1.23;;;17.40;99.90;;;;;;5094636;28;20443;-76
2022/08/31 09:07:36;;;;;;;1.23;1.03;;;17.60;99.90;;;;;;5094626;28;20439;-76
2022/08/31 09:10:09;;;;;;;1.23;1.10;;;17.60;99.90;;;;;;5094258;28;20450;-76
2022/08/31 09:12:45;;;;;;;2.37;1.30;;;17.70;99.90;;;;;;5094675;28;20463;-76
2022/08/31 09:15:35;;;;;;;1.20;1.00;;;17.60;99.90;;;;;;5094417;28;20435;-76
2022/08/31 09:18:14;;;;;;;1.07;0.87;;;17.60;99.90;;;;;;5095240;28;20486;-76
2022/08/31 09:20:43;;;;;;;1.93;0.93;;;17.60;99.90;;;;;;5093910;28;20489;-76
2022/08/31 09:23:09;;;;;;;3.07;2.00;;;17.60;99.90;;;;;;5094191;28;20468;-76
2022/08/31 09:25:48;;;;;;;1.40;1.30;;;17.60;99.90;;;;;;5094016;28;20490;-76
2022/08/31 09:28:15;;;;;;;1.93;1.00;;;17.70;99.90;;;;;;5093894;28;20806;-76
2022/08/31 09:30:50;;;;;;;2.10;1.47;;;17.80;99.90;;;;;;5093790;28;20452;-76
2022/08/31 09:33:20;;;;;;;2.03;1.13;;;18.00;99.90;;;;;;5093664;28;20522;-76
2022/08/31 09:35:55;;;;;;;2.63;1.33;;;18.10;99.90;;;;;;5094008;28;20455;-76
2022/08/31 09:38:30;;;;;;;1.80;1.03;;;18.20;99.90;;;;;;5094032;28;20431;-76
2022/08/31 09:40:57;;;;;;;1.33;1.07;;;18.30;99.90;;;;;;5093931;28;20450;-76
2022/08/31 09:43:33;;;;;;;2.53;1.33;;;18.30;99.90;;;;;;5093820;28;20468;-76
2022/08/31 09:46:04;;;;;;;1.90;1.10;;;18.30;99.90;;;;;;5093921;28;20530;-76
2022/08/31 09:48:45;;;;;;;2.97;1.60;;;18.30;99.90;;;;;;5094253;28;20919;-76
2022/08/31 09:51:22;;;;;;;2.07;1.30;;;18.30;99.90;;;;;;5093747;28;20463;-76
2022/08/31 09:56:51;;;;;;;1.67;1.13;;;18.30;99.90;;;;;;5094088;28;20965;-76
2022/08/31 09:59:32;;;;;;;2.87;1.70;;;18.20;99.90;;;;;;5094534;28;20443;-75
2022/08/31 10:02:01;;;;;;;2.73;1.77;;;18.10;99.90;;;;;;5093615;28;20604;-75
2022/08/31 10:04:35;;;;;;;2.47;1.20;;;18.00;99.90;;;;;;5093596;28;20497;-76
2022/08/31 10:07:12;;;;;;;2.60;1.40;;;17.90;99.90;;;;;;5093567;28;20440;-76
2022/08/31 10:09:45;;;;;;;2.67;1.30;;;17.90;99.90;;;;;;5093585;28;20432;-76
2022/08/31 10:12:18;;;;;;;2.40;1.20;;;17.90;99.90;;;;;;5093504;28;20563;-76
2022/08/31 10:14:52;;;;;;;7.73;1.77;;;17.90;99.90;;;;;;5093437;28;20456;-76
2022/08/31 10:17:25;;;;;;;2.87;2.67;;;17.80;99.90;;;;;;5093503;28;20503;-76
2022/08/31 10:19:56;;;;;;;1.43;1.20;;;17.80;99.90;;;;;;5093995;28;20432;-75
2022/08/31 10:22:29;;;;;;;1.97;1.27;;;17.70;99.90;;;;;;5093084;28;20847;-75
2022/08/31 10:25:17;;;;;;;1.83;1.63;;;17.60;99.90;;;;;;5093441;28;20416;-75
2022/08/31 10:27:47;;;;;;;1.23;1.13;;;17.60;99.90;;;;;;5093370;28;20448;-75
2022/08/31 10:30:23;;;;;;;2.90;1.70;;;17.60;99.90;;;;;;5093558;28;20447;-75
2022/08/31 10:32:56;;;;;;;3.80;1.87;;;17.60;99.90;;;;;;5095326;28;20474;-75
2022/08/31 10:35:31;;;;;;;2.40;1.60;;;17.60;99.90;;;;;;5097531;28;20432;-75
2022/08/31 10:38:07;;;;;;;2.33;1.30;;;17.60;99.90;;;;;;5097458;28;20484;-75
2022/08/31 10:40:43;;;;;;;3.73;1.50;;;17.60;99.90;;;;;;5097413;28;20435;-75
2022/08/31 10:43:15;;;;;;;3.87;1.70;;;17.60;99.90;;;;;;5097352;28;20463;-77
2022/08/31 10:45:44;;;;;;;1.20;1.00;;;17.60;99.90;;;;;;5097423;28;20529;-76
2022/08/31 10:48:12;;;;;;;3.50;1.90;;;17.70;99.90;;;;;;5097282;28;20448;-76
2022/08/31 10:50:46;;;;;;;3.10;1.53;;;17.70;99.90;;;;;;5097226;28;20444;-76
2022/08/31 10:53:26;;;;;;;5.23;2.03;;;17.80;99.90;;;;;;5097043;28;20490;-76
2022/08/31 10:56:01;;;;;;;3.33;1.17;;;17.90;99.90;;;;;;5097171;28;20501;-76
2022/08/31 10:58:39;;;;;;;2.27;1.63;;;18.00;99.90;;;;;;5096778;28;20438;-76
2022/08/31 11:01:14;;;;;;;2.10;1.63;;;18.10;99.90;;;;;;5096765;28;20907;-76
2022/08/31 11:03:55;;;;;;;1.80;1.23;;;18.20;99.90;;;;;;5097010;28;20432;-76
2022/08/31 11:06:31;;;;;;;3.00;1.67;;;18.20;99.90;;;;;;5096967;28;20424;-76
2022/08/31 11:09:04;;;;;;;5.57;2.63;;;18.30;99.90;;;;;;5097139;28;20439;-76
2022/08/31 11:11:38;;;;;;;3.17;2.10;;;18.40;99.90;;;;;;5096861;28;20913;-76
2022/08/31 11:14:23;;;;;;;2.60;1.47;;;18.50;99.90;;;;;;5096444;28;20979;-76
2022/08/31 11:17:17;;;;;;;2.00;1.80;;;18.50;99.90;;;;;;5096670;28;20452;-76
2022/08/31 11:20:08;;;;;;;3.10;2.23;;;18.60;99.90;;;;;;5096727;28;20535;-76
2022/08/31 11:23:05;;;;;;;6.37;2.50;;;18.70;99.90;;;;;;5096683;28;20466;-76
2022/08/31 11:26:07;;;;;;;4.07;2.73;;;18.70;99.90;;;;;;5095995;28;20486;-76
2022/08/31 11:28:39;;;;;;;2.20;1.90;;;18.80;99.90;;;;;;5095267;28;20447;-76
2022/08/31 11:31:13;;;;;;;2.00;1.60;;;18.80;99.90;;;;;;5094961;28;20439;-76
2022/08/31 11:33:49;;;;;;;4.17;2.07;;;18.70;99.90;;;;;;5095097;28;20498;-76
2022/08/31 11:36:49;;;;;;;5.40;1.47;;;18.70;99.90;;;;;;5094881;28;20478;-76
2022/08/31 11:39:43;;;;;;;5.37;2.03;;;18.70;99.90;;;;;;5094771;28;20444;-76
2022/08/31 11:42:52;;;;;;;2.43;1.97;;;18.70;99.90;;;;;;5087289;28;21022;-76
2022/08/31 11:45:28;;;;;;;3.90;1.87;;;18.80;99.90;;;;;;5095194;28;20439;-76
2022/08/31 11:47:55;;;;;;;3.90;2.20;;;18.80;99.90;;;;;;5094956;28;20463;-76
2022/08/31 11:51:01;;;;;;;4.17;1.80;;;18.70;99.90;;;;;;5094922;28;20440;-76
2022/08/31 11:53:34;;;;;;;3.83;2.73;;;18.60;99.90;;;;;;5094751;28;20466;-76
2022/08/31 11:56:02;;;;;;;3.00;1.80;;;18.70;99.90;;;;;;5094853;28;20428;-76
2022/08/31 11:58:32;;;;;;;2.40;1.80;;;18.70;99.90;;;;;;5094727;28;20519;-75
2022/08/31 12:01:05;;;;;;;1.83;1.73;;;18.70;99.90;;;;;;5095040;28;20455;-75
2022/08/31 12:03:45;;;;;;;2.13;1.90;;;18.80;99.90;;;;;;5094370;28;20464;-76
2022/08/31 12:06:51;;;;;;;3.50;1.97;;;18.80;99.90;;;;;;5094681;28;20432;-76
2022/08/31 12:09:42;;;;;;;1.70;1.47;;;19.00;99.90;;;;;;5094177;28;20592;-75
2022/08/31 12:12:29;;;;;;;3.13;1.70;;;19.20;99.90;;;;;;5095325;28;20471;-75
2022/08/31 12:15:06;;;;;;;2.13;1.83;;;19.20;99.90;;;;;;5094136;28;20475;-76
2022/08/31 12:17:45;;;;;;;6.30;3.27;;;19.20;99.90;;;;;;5094433;28;20998;-76
2022/08/31 12:20:19;;;;;;;8.40;2.50;;;19.20;99.90;;;;;;5094520;28;20466;-75
2022/08/31 12:23:36;;;;;;;3.77;2.50;;;19.20;99.90;;;;;;5094048;28;21017;-75
2022/08/31 12:26:32;;;;;;;1.63;1.53;;;19.20;99.90;;;;;;5054010;28;1047430;-75
2022/08/31 12:29:15;;;;;;;3.40;2.20;;;19.20;99.90;;;;;;5095323;28;20190;-75
2022/08/31 12:31:57;;;;;;;3.90;2.03;;;19.20;99.90;;;;;;5095425;28;20475;-75
2022/08/31 12:34:25;;;;;;;3.60;1.70;;;19.10;99.90;;;;;;5095037;28;20857;-76
2022/08/31 12:36:52;;;;;;;1.93;1.63;;;19.20;99.90;;;;;;5095162;28;20523;-76
2022/08/31 12:39:21;;;;;;;3.30;2.20;;;19.20;99.90;;;;;;5095195;28;20456;-76
2022/08/31 12:41:52;;;;;;;14.43;2.00;;;19.30;99.90;;;;;;5094958;28;20490;-76
2022/08/31 12:44:20;;;;;;;4.17;2.20;;;19.30;99.90;;;;;;5094747;28;20785;-76
2022/08/31 12:47:00;;;;;;;3.80;2.73;;;19.40;99.90;;;;;;5094920;28;20448;-76
2022/08/31 12:49:44;;;;;;;2.53;1.43;;;19.40;99.90;;;;;;5095775;28;20435;-76
2022/08/31 12:52:22;;;;;;;2.90;2.43;;;19.40;99.90;;;;;;5094999;28;20468;-76
2022/08/31 12:55:13;;;;;;;2.40;1.93;;;19.50;99.90;;;;;;5093664;28;20977;-76
2022/08/31 12:58:07;;;;;;;2.90;2.17;;;19.40;99.90;;;;;;5094777;28;20433;-77
2022/08/31 13:00:37;;;;;;;2.70;2.00;;;19.40;99.90;;;;;;5094686;28;20436;-76
2022/08/31 13:03:17;;;;;;;4.70;2.70;;;19.50;99.90;;;;;;5094602;28;20542;-76
2022/08/31 13:06:00;;;;;;;3.27;2.83;;;19.50;99.90;;;;;;5094660;28;20425;-76
2022/08/31 13:08:27;;;;;;;3.67;2.10;;;19.70;99.90;;;;;;5094593;28;20435;-80
2022/08/31 13:10:54;;;;;;;2.53;1.73;;;19.70;99.90;;;;;;5094385;28;20470;-84
2022/08/31 13:13:25;;;;;;;2.83;2.17;;;19.70;99.90;;;;;;5094351;28;20470;-85
2022/08/31 13:15:59;;;;;;;6.43;1.90;;;19.70;99.90;;;;;;5094415;28;20464;-78
2022/08/31 13:18:29;;;;;;;3.70;1.90;;;19.70;99.90;;;;;;5094455;28;20431;-84